Time;durP1;ratioP1;P1;durP2;ratioP2;P2;SDS_P1;SDS_P2;PMS_P1;PMS_P2;Temp;Humidity;BMP_temperature;BMP_pressure;BME280_temperature;BME280_humidity;BME280_pressure;Samples;Min_cycle;Max_cycle;Signal;HPM_P1;HPM_P2
2023/03/04 00:01:47;;;;;;;9.13;2.03;;;7.10;99.90;;;;;;6189710;23;20016;-90
2023/03/04 00:04:13;;;;;;;13.80;2.30;;;7.10;99.90;;;;;;6171840;23;19997;-89
2023/03/04 00:06:39;;;;;;;12.52;2.17;;;7.10;99.90;;;;;;6215045;22;20067;-90
2023/03/04 00:09:04;;;;;;;11.25;2.08;;;7.10;99.90;;;;;;6212125;22;20076;-90
2023/03/04 00:11:31;;;;;;;11.43;1.90;;;7.10;99.90;;;;;;6174227;23;20051;-90
2023/03/04 00:13:57;;;;;;;10.68;2.30;;;7.10;99.90;;;;;;6165865;23;20055;-90
2023/03/04 00:16:26;;;;;;;8.48;2.15;;;7.10;99.90;;;;;;6165199;23;20027;-90
2023/03/04 00:18:52;;;;;;;12.68;1.70;;;7.10;99.90;;;;;;6164552;23;20044;-89
2023/03/04 00:21:18;;;;;;;13.00;2.83;;;7.10;99.90;;;;;;6164865;23;20020;-89
2023/03/04 00:23:43;;;;;;;13.68;1.80;;;7.10;99.90;;;;;;6164604;23;20095;-90
2023/03/04 00:26:09;;;;;;;14.20;2.08;;;7.10;99.90;;;;;;6164472;23;20021;-89
2023/03/04 00:28:35;;;;;;;12.00;1.70;;;7.10;99.90;;;;;;6188865;23;20017;-89
2023/03/04 00:31:00;;;;;;;12.65;2.53;;;7.10;99.90;;;;;;6164525;23;20464;-90
2023/03/04 00:33:26;;;;;;;12.68;1.88;;;7.00;99.90;;;;;;6189214;23;20012;-89
2023/03/04 00:35:52;;;;;;;17.25;2.03;;;7.00;99.50;;;;;;6189273;23;20020;-89
2023/03/04 00:38:17;;;;;;;7.88;1.75;;;7.00;99.30;;;;;;6188644;23;20048;-90
2023/03/04 00:40:43;;;;;;;12.02;2.15;;;7.00;99.30;;;;;;6164608;23;20017;-89
2023/03/04 00:43:08;;;;;;;9.80;1.83;;;7.00;99.60;;;;;;6164387;23;20016;-89
2023/03/04 00:45:34;;;;;;;15.27;2.30;;;7.00;99.70;;;;;;6189133;23;20012;-89
2023/03/04 00:47:59;;;;;;;13.70;2.20;;;7.00;99.60;;;;;;6188790;23;20017;-90
2023/03/04 00:50:25;;;;;;;11.23;2.10;;;7.10;99.70;;;;;;6164452;23;20009;-90
2023/03/04 00:52:50;;;;;;;14.00;2.17;;;7.00;99.80;;;;;;6164389;23;20016;-90
2023/03/04 00:55:16;;;;;;;15.07;2.15;;;7.00;99.90;;;;;;6189111;23;20384;-90
2023/03/04 00:57:42;;;;;;;12.35;1.95;;;7.00;99.90;;;;;;6188296;23;20013;-89
2023/03/04 01:00:08;;;;;;;9.50;1.58;;;7.00;99.90;;;;;;6164055;23;20380;-89
2023/03/04 01:02:34;;;;;;;9.30;1.70;;;7.00;99.90;;;;;;6189103;23;20028;-90
2023/03/04 01:04:59;;;;;;;12.57;2.05;;;7.00;99.90;;;;;;6188979;23;20012;-90
2023/03/04 01:07:25;;;;;;;14.20;2.40;;;7.00;99.90;;;;;;6163837;23;20479;-90
2023/03/04 01:09:50;;;;;;;13.43;2.28;;;7.00;99.90;;;;;;6188918;23;20092;-90
2023/03/04 01:12:16;;;;;;;10.45;1.75;;;7.00;99.90;;;;;;6189343;23;20017;-90
2023/03/04 01:14:41;;;;;;;10.88;2.05;;;7.00;99.90;;;;;;6164129;23;20502;-90
2023/03/04 01:17:07;;;;;;;14.70;1.98;;;7.00;99.90;;;;;;6164094;23;20079;-90
2023/03/04 01:19:33;;;;;;;11.73;1.52;;;7.00;99.90;;;;;;6163454;23;20012;-90
2023/03/04 01:21:59;;;;;;;12.25;2.00;;;7.00;99.90;;;;;;6163950;23;20021;-90
2023/03/04 01:24:24;;;;;;;16.45;2.28;;;7.00;99.90;;;;;;6188916;23;20047;-90
2023/03/04 01:26:50;;;;;;;15.50;1.80;;;7.00;99.90;;;;;;6188905;23;20017;-89
2023/03/04 01:29:16;;;;;;;10.55;1.45;;;7.00;99.90;;;;;;6188285;23;20480;-90
2023/03/04 01:31:41;;;;;;;10.70;1.98;;;7.00;99.90;;;;;;6188695;23;20062;-90
2023/03/04 01:34:08;;;;;;;13.13;1.88;;;7.00;99.90;;;;;;6188713;23;20020;-90
2023/03/04 01:36:34;;;;;;;18.10;2.88;;;7.00;99.90;;;;;;6163700;23;20021;-89
2023/03/04 01:38:59;;;;;;;14.60;2.05;;;7.00;99.90;;;;;;6163415;23;20024;-89
2023/03/04 01:41:26;;;;;;;9.02;1.83;;;7.00;99.90;;;;;;6188861;23;20019;-89
2023/03/04 01:43:55;;;;;;;10.23;1.95;;;7.00;99.90;;;;;;6163757;23;20078;-89
2023/03/04 01:46:21;;;;;;;8.10;1.35;;;6.90;99.90;;;;;;6188637;23;20012;-89
2023/03/04 01:48:46;;;;;;;12.75;2.03;;;7.00;99.90;;;;;;6188139;23;20012;-89
2023/03/04 01:51:17;;;;;;;11.35;1.88;;;7.00;99.90;;;;;;6188756;23;20016;-90
2023/03/04 01:53:44;;;;;;;11.55;1.52;;;7.00;99.90;;;;;;6188345;23;20462;-89
2023/03/04 01:56:35;;;;;;;11.68;1.55;;;7.00;99.90;;;;;;6163768;23;20009;-89
2023/03/04 01:59:06;;;;;;;15.07;1.85;;;7.00;99.90;;;;;;6187944;23;20094;-89
2023/03/04 02:01:32;;;;;;;12.55;1.67;;;6.90;99.90;;;;;;6188670;23;20028;-90
2023/03/04 02:03:58;;;;;;;12.25;1.98;;;6.90;99.90;;;;;;6188257;23;20013;-89
2023/03/04 02:06:23;;;;;;;10.73;1.50;;;6.90;99.90;;;;;;6188445;23;20031;-89
2023/03/04 02:08:49;;;;;;;15.07;2.05;;;6.90;99.90;;;;;;6163267;23;20463;-89
2023/03/04 02:11:15;;;;;;;13.40;2.60;;;6.90;99.90;;;;;;6188060;23;20020;-90
2023/03/04 02:13:40;;;;;;;12.13;2.22;;;6.90;99.90;;;;;;6163803;23;20012;-90
2023/03/04 02:16:06;;;;;;;12.35;1.90;;;6.90;99.90;;;;;;6188411;23;20459;-90
2023/03/04 02:18:32;;;;;;;8.15;1.60;;;6.90;99.90;;;;;;6187918;23;20004;-89
2023/03/04 02:21:11;;;;;;;9.85;1.65;;;7.00;99.90;;;;;;6188377;23;20024;-90
2023/03/04 02:23:57;;;;;;;8.68;1.90;;;6.90;99.90;;;;;;6163439;23;20391;-90
2023/03/04 02:26:25;;;;;;;17.05;4.10;;;7.00;99.90;;;;;;6163481;23;20087;-90
2023/03/04 02:28:53;;;;;;;12.25;1.80;;;6.90;99.90;;;;;;6162888;23;20384;-90
2023/03/04 02:31:23;;;;;;;11.10;2.00;;;6.90;99.90;;;;;;6188055;23;20103;-89
2023/03/04 02:33:50;;;;;;;15.38;2.20;;;6.90;99.90;;;;;;6188173;23;20055;-90
2023/03/04 02:36:16;;;;;;;15.20;2.40;;;6.90;99.90;;;;;;6162958;23;20044;-90
2023/03/04 02:38:41;;;;;;;11.60;2.25;;;6.90;99.90;;;;;;6187645;23;20020;-90
2023/03/04 02:41:12;;;;;;;14.98;2.17;;;6.90;99.90;;;;;;6188390;23;20024;-89
2023/03/04 02:43:38;;;;;;;11.13;1.88;;;6.90;99.90;;;;;;6188019;23;20051;-90
2023/03/04 02:46:04;;;;;;;8.70;2.17;;;6.90;99.90;;;;;;6163256;23;20009;-91
2023/03/04 02:48:30;;;;;;;12.35;2.58;;;6.90;99.90;;;;;;6187528;23;20070;-90
2023/03/04 02:50:56;;;;;;;8.80;1.73;;;6.90;99.90;;;;;;6188312;23;20091;-90
2023/03/04 02:53:24;;;;;;;11.77;1.60;;;6.90;99.90;;;;;;6187953;23;20021;-89
2023/03/04 02:55:49;;;;;;;9.98;1.80;;;6.90;99.90;;;;;;6188044;23;20489;-89
2023/03/04 02:58:15;;;;;;;11.55;2.33;;;6.90;99.90;;;;;;6187199;23;20013;-90
2023/03/04 03:00:41;;;;;;;8.75;1.85;;;6.90;99.90;;;;;;6188087;23;20019;-89
2023/03/04 03:03:06;;;;;;;15.70;2.00;;;6.90;99.90;;;;;;6163236;23;20440;-90
2023/03/04 03:05:33;;;;;;;7.95;1.33;;;6.90;99.90;;;;;;6187949;23;20023;-90
2023/03/04 03:07:59;;;;;;;9.00;2.15;;;6.90;99.90;;;;;;6187538;23;20044;-89
2023/03/04 03:10:25;;;;;;;8.43;1.50;;;6.90;99.90;;;;;;6187849;23;20028;-88
2023/03/04 03:12:51;;;;;;;8.32;1.48;;;6.90;99.90;;;;;;6187994;23;20027;-89
2023/03/04 03:15:17;;;;;;;11.20;2.40;;;6.90;99.90;;;;;;6163135;23;20016;-89
2023/03/04 03:17:43;;;;;;;10.98;1.60;;;6.90;99.90;;;;;;6187405;23;20214;-89
2023/03/04 03:20:10;;;;;;;9.60;2.13;;;6.90;99.90;;;;;;6187952;23;20012;-90
2023/03/04 03:22:36;;;;;;;12.95;1.95;;;6.80;99.90;;;;;;6189654;23;20019;-89
2023/03/04 03:25:02;;;;;;;15.10;1.90;;;6.80;99.90;;;;;;6189819;23;20083;-88
2023/03/04 03:27:28;;;;;;;12.07;2.05;;;6.80;99.90;;;;;;6189420;23;20004;-89
2023/03/04 03:29:53;;;;;;;10.35;2.03;;;6.80;99.90;;;;;;6165071;23;20020;-89
2023/03/04 03:32:19;;;;;;;14.57;2.13;;;6.80;99.90;;;;;;6164927;23;20024;-89
2023/03/04 03:34:44;;;;;;;12.80;1.80;;;6.80;99.90;;;;;;6189695;23;20016;-89
2023/03/04 03:37:10;;;;;;;17.20;2.63;;;6.80;99.90;;;;;;6189746;23;20012;-89
2023/03/04 03:39:36;;;;;;;11.27;1.50;;;6.80;99.90;;;;;;6189521;23;20071;-90
2023/03/04 03:42:01;;;;;;;11.68;2.13;;;6.80;99.90;;;;;;6189672;23;20075;-89
2023/03/04 03:44:27;;;;;;;10.13;1.80;;;6.80;99.90;;;;;;6189922;23;20024;-90
2023/03/04 03:46:53;;;;;;;13.20;2.67;;;6.80;99.90;;;;;;6189625;23;20329;-89
2023/03/04 03:49:18;;;;;;;11.93;1.85;;;6.80;99.90;;;;;;6189507;23;20020;-90
2023/03/04 03:51:44;;;;;;;10.75;1.75;;;6.80;99.90;;;;;;6189826;23;20020;-89
2023/03/04 03:54:10;;;;;;;12.02;2.03;;;6.80;99.90;;;;;;6164833;23;20027;-90
2023/03/04 03:56:35;;;;;;;10.35;1.42;;;6.80;99.90;;;;;;6189961;23;20021;-89
2023/03/04 03:59:01;;;;;;;10.85;1.83;;;6.80;99.90;;;;;;6164209;23;20460;-89
2023/03/04 04:01:26;;;;;;;9.63;1.95;;;6.80;99.90;;;;;;6189480;23;20058;-89
2023/03/04 04:03:52;;;;;;;11.10;2.45;;;6.80;99.90;;;;;;6189477;23;20023;-89
2023/03/04 04:06:18;;;;;;;12.05;2.13;;;6.80;99.90;;;;;;6164853;23;20013;-90
2023/03/04 04:08:43;;;;;;;10.50;1.88;;;6.70;99.90;;;;;;6164183;23;20099;-89
2023/03/04 04:11:10;;;;;;;10.98;1.88;;;6.80;99.90;;;;;;6164929;23;20451;-89
2023/03/04 04:13:35;;;;;;;10.95;1.75;;;6.70;99.90;;;;;;6189394;23;20012;-89
2023/03/04 04:16:01;;;;;;;10.55;1.75;;;6.70;99.90;;;;;;6189481;23;20074;-89
2023/03/04 04:18:27;;;;;;;15.57;1.95;;;6.70;99.90;;;;;;6189069;23;20019;-89
2023/03/04 04:20:53;;;;;;;9.68;2.10;;;6.70;99.90;;;;;;6189577;23;20017;-89
2023/03/04 04:23:19;;;;;;;13.70;2.00;;;6.60;99.90;;;;;;6164753;23;20459;-89
2023/03/04 04:25:44;;;;;;;10.48;1.75;;;6.70;99.90;;;;;;6164809;23;20012;-89
2023/03/04 04:28:10;;;;;;;10.05;1.73;;;6.70;99.90;;;;;;6164366;23;20024;-89
2023/03/04 04:30:35;;;;;;;13.32;1.73;;;6.70;99.90;;;;;;6189229;23;20330;-89
2023/03/04 04:33:03;;;;;;;10.45;1.48;;;6.70;99.90;;;;;;6188876;23;20013;-89
2023/03/04 04:35:33;;;;;;;9.45;1.25;;;6.70;99.90;;;;;;6189200;23;20019;-89
2023/03/04 04:37:59;;;;;;;9.73;1.85;;;6.70;99.90;;;;;;6164236;23;20009;-89
2023/03/04 04:40:24;;;;;;;9.48;1.30;;;6.70;99.90;;;;;;6189311;23;20013;-89
2023/03/04 04:42:50;;;;;;;9.80;2.15;;;6.70;99.90;;;;;;6189264;23;20063;-89
2023/03/04 04:45:16;;;;;;;10.40;2.25;;;6.70;99.90;;;;;;6164401;23;20009;-89
2023/03/04 04:47:41;;;;;;;13.13;2.40;;;6.70;99.90;;;;;;6163964;23;20028;-89
2023/03/04 04:50:08;;;;;;;9.63;1.65;;;6.70;99.90;;;;;;6189385;23;20019;-90
2023/03/04 04:52:34;;;;;;;11.20;1.73;;;6.70;99.90;;;;;;6164355;23;20383;-90
2023/03/04 04:54:59;;;;;;;9.90;1.90;;;6.70;99.90;;;;;;6164726;23;20031;-89
2023/03/04 04:57:25;;;;;;;16.70;2.13;;;6.70;99.90;;;;;;6163847;23;20035;-88
2023/03/04 04:59:50;;;;;;;9.98;1.75;;;6.70;99.90;;;;;;6164361;23;20070;-90
2023/03/04 05:02:16;;;;;;;10.50;1.90;;;6.70;99.90;;;;;;6164238;23;20017;-90
2023/03/04 05:04:42;;;;;;;11.52;1.58;;;6.70;99.90;;;;;;6164348;23;20448;-89
2023/03/04 05:07:07;;;;;;;7.65;1.58;;;6.70;99.90;;;;;;6164197;23;20019;-89
2023/03/04 05:09:33;;;;;;;11.70;1.77;;;6.70;99.90;;;;;;6163873;23;20389;-89
2023/03/04 05:11:58;;;;;;;11.75;1.70;;;6.70;99.90;;;;;;6188960;23;20099;-89
2023/03/04 05:14:24;;;;;;;16.92;2.35;;;6.70;99.90;;;;;;6196977;22;20013;-90
2023/03/04 05:16:51;;;;;;;9.57;2.45;;;6.70;99.90;;;;;;6192262;22;20028;-90
2023/03/04 05:19:17;;;;;;;14.77;2.03;;;6.70;99.90;;;;;;6179550;22;20019;-89
2023/03/04 05:21:43;;;;;;;10.32;2.55;;;6.60;99.90;;;;;;6190074;23;20011;-90
2023/03/04 05:24:09;;;;;;;13.75;2.60;;;6.60;99.90;;;;;;6169085;23;20024;-89
2023/03/04 05:26:34;;;;;;;9.65;1.70;;;6.60;99.90;;;;;;6189596;23;20017;-89
2023/03/04 05:29:00;;;;;;;10.13;1.77;;;6.60;99.90;;;;;;6188828;23;20005;-89
2023/03/04 05:31:26;;;;;;;7.45;1.50;;;6.60;99.90;;;;;;6189212;23;20024;-89
2023/03/04 05:33:51;;;;;;;9.88;1.65;;;6.60;99.90;;;;;;6164197;23;20392;-90
2023/03/04 05:36:17;;;;;;;10.35;1.42;;;6.60;99.90;;;;;;6163777;23;20079;-89
2023/03/04 05:38:42;;;;;;;9.73;1.77;;;6.60;99.90;;;;;;6188397;23;20020;-89
2023/03/04 05:41:08;;;;;;;12.38;1.70;;;6.60;99.90;;;;;;6188743;23;20047;-88
2023/03/04 05:43:35;;;;;;;8.93;1.52;;;6.50;99.90;;;;;;6188522;23;20047;-89
2023/03/04 05:46:02;;;;;;;13.50;2.00;;;6.50;99.90;;;;;;6163697;23;20020;-88
2023/03/04 05:48:27;;;;;;;7.15;1.30;;;6.50;99.90;;;;;;6163484;23;20017;-89
2023/03/04 05:50:58;;;;;;;10.00;1.85;;;6.50;99.90;;;;;;6163735;23;20016;-88
2023/03/04 05:53:24;;;;;;;7.80;1.95;;;6.40;99.90;;;;;;6188530;23;20062;-89
2023/03/04 05:55:50;;;;;;;11.10;1.80;;;6.40;99.90;;;;;;6188697;23;20021;-89
2023/03/04 05:58:16;;;;;;;9.65;1.60;;;6.30;99.90;;;;;;6187800;23;20022;-90
2023/03/04 06:00:43;;;;;;;6.75;1.50;;;6.30;99.90;;;;;;6163738;23;20059;-89
2023/03/04 06:03:16;;;;;;;7.57;1.50;;;6.20;99.90;;;;;;6163691;23;20044;-90
2023/03/04 06:05:42;;;;;;;12.90;1.85;;;6.20;99.90;;;;;;6163459;23;20505;-89
2023/03/04 06:08:09;;;;;;;9.57;1.60;;;6.20;99.90;;;;;;6163280;23;20048;-88
2023/03/04 06:10:34;;;;;;;8.07;1.33;;;6.20;99.90;;;;;;6188188;23;20038;-89
2023/03/04 06:13:00;;;;;;;8.85;1.90;;;6.20;99.90;;;;;;6163816;23;20499;-89
2023/03/04 06:15:25;;;;;;;10.65;1.40;;;6.20;99.90;;;;;;6163694;23;20019;-89
2023/03/04 06:17:51;;;;;;;9.88;1.73;;;6.20;99.90;;;;;;6188124;23;20051;-88
2023/03/04 06:20:17;;;;;;;12.30;1.88;;;6.20;99.90;;;;;;6163417;23;20461;-88
2023/03/04 06:22:42;;;;;;;11.02;1.65;;;6.20;99.90;;;;;;6163631;23;20016;-88
2023/03/04 06:25:08;;;;;;;6.75;1.45;;;6.20;99.90;;;;;;6187972;23;20009;-89
2023/03/04 06:27:34;;;;;;;6.93;1.20;;;6.20;99.90;;;;;;6162837;23;20070;-88
2023/03/04 06:30:00;;;;;;;13.07;1.90;;;6.20;99.90;;;;;;6188138;23;20055;-88
2023/03/04 06:32:26;;;;;;;12.65;2.15;;;6.20;99.90;;;;;;6188339;23;20020;-88
2023/03/04 06:34:52;;;;;;;6.60;1.30;;;6.10;99.90;;;;;;6187999;23;20016;-88
2023/03/04 06:37:18;;;;;;;13.70;1.90;;;6.10;99.90;;;;;;6162865;23;20026;-87
2023/03/04 06:39:44;;;;;;;11.57;1.60;;;6.10;99.90;;;;;;6187461;23;20048;-89
2023/03/04 06:42:10;;;;;;;12.90;2.35;;;6.00;99.90;;;;;;6161000;23;20016;-88
2023/03/04 06:44:36;;;;;;;8.07;1.15;;;6.00;99.90;;;;;;6186156;23;20013;-89
2023/03/04 06:47:02;;;;;;;7.70;1.60;;;6.00;99.90;;;;;;6186585;23;20020;-89
2023/03/04 06:49:27;;;;;;;7.85;1.30;;;6.00;99.90;;;;;;6161735;23;20023;-88
2023/03/04 06:51:53;;;;;;;7.60;1.75;;;6.00;99.90;;;;;;6186942;23;20021;-89
2023/03/04 06:54:19;;;;;;;10.30;1.48;;;6.00;99.90;;;;;;6162196;23;20017;-89
2023/03/04 06:56:44;;;;;;;6.15;1.10;;;6.10;99.90;;;;;;6161887;23;20017;-89
2023/03/04 06:59:10;;;;;;;6.78;1.30;;;6.20;99.90;;;;;;6161409;23;20024;-90
2023/03/04 07:01:36;;;;;;;5.32;1.13;;;6.20;99.90;;;;;;6162678;23;20019;-89
2023/03/04 07:04:03;;;;;;;13.73;2.67;;;6.20;99.90;;;;;;6162527;23;20017;-89
2023/03/04 07:06:28;;;;;;;5.30;1.25;;;6.30;99.90;;;;;;6162758;23;20468;-89
2023/03/04 07:08:55;;;;;;;7.10;1.45;;;6.30;99.90;;;;;;6186916;23;20496;-89
2023/03/04 07:11:21;;;;;;;6.45;1.23;;;6.40;99.90;;;;;;6187291;23;20068;-89
2023/03/04 07:13:47;;;;;;;7.82;1.67;;;6.40;99.90;;;;;;6162408;23;20027;-90
2023/03/04 07:16:16;;;;;;;7.68;1.48;;;6.40;99.90;;;;;;6187102;23;20017;-90
2023/03/04 07:18:43;;;;;;;10.75;1.48;;;6.50;99.90;;;;;;6161553;23;20069;-89
2023/03/04 07:21:08;;;;;;;9.15;1.80;;;6.50;99.90;;;;;;6162485;23;20095;-90
2023/03/04 07:23:35;;;;;;;7.05;2.47;;;6.50;99.90;;;;;;6162111;23;20070;-90
2023/03/04 07:26:00;;;;;;;6.90;1.38;;;6.60;99.90;;;;;;6161882;23;20016;-89
2023/03/04 07:28:26;;;;;;;6.60;1.50;;;6.60;99.90;;;;;;6186531;23;20095;-89
2023/03/04 07:30:52;;;;;;;6.13;1.17;;;6.60;99.90;;;;;;6162173;23;20027;-89
2023/03/04 07:33:18;;;;;;;8.07;1.60;;;6.60;99.90;;;;;;6187336;23;20013;-90
2023/03/04 07:35:44;;;;;;;8.80;1.88;;;6.60;99.90;;;;;;6162554;23;20070;-90
2023/03/04 07:38:10;;;;;;;5.45;1.40;;;6.60;99.90;;;;;;6161448;23;20016;-89
2023/03/04 07:40:36;;;;;;;7.72;1.90;;;6.70;99.90;;;;;;6186816;23;20025;-90
2023/03/04 07:43:02;;;;;;;5.10;1.25;;;6.70;99.90;;;;;;6187113;23;20038;-90
2023/03/04 07:45:27;;;;;;;5.43;1.05;;;6.70;99.90;;;;;;6187440;23;20383;-90
2023/03/04 07:47:53;;;;;;;9.18;1.63;;;6.80;99.90;;;;;;6162053;23;20450;-89
2023/03/04 07:50:19;;;;;;;6.90;1.30;;;6.80;99.90;;;;;;6162685;23;20013;-90
2023/03/04 07:52:47;;;;;;;6.63;1.02;;;6.90;99.90;;;;;;6187273;23;20013;-89
2023/03/04 07:55:14;;;;;;;4.68;1.25;;;6.90;99.90;;;;;;6186766;23;20020;-89
2023/03/04 07:57:41;;;;;;;7.97;1.10;;;7.00;99.90;;;;;;6186426;23;20543;-90
2023/03/04 08:00:08;;;;;;;6.30;1.40;;;7.00;99.90;;;;;;6161835;23;20013;-90
2023/03/04 08:02:34;;;;;;;5.35;1.00;;;7.10;99.90;;;;;;6186796;23;20343;-89
2023/03/04 08:05:06;;;;;;;9.60;1.83;;;7.10;99.90;;;;;;6186861;23;20028;-89
2023/03/04 08:07:32;;;;;;;4.13;0.80;;;7.20;99.90;;;;;;6186230;23;20017;-90
2023/03/04 08:09:58;;;;;;;6.53;1.02;;;7.20;99.90;;;;;;6188539;23;20036;-90
2023/03/04 08:12:24;;;;;;;9.35;1.33;;;7.30;99.90;;;;;;6188765;23;20075;-90
2023/03/04 08:14:51;;;;;;;9.02;1.27;;;7.30;99.90;;;;;;6163760;23;20023;-90
2023/03/04 08:17:16;;;;;;;5.82;1.30;;;7.40;99.90;;;;;;6188584;23;20091;-90
2023/03/04 08:19:42;;;;;;;7.18;1.10;;;7.50;99.90;;;;;;6187625;23;20404;-91
2023/03/04 08:22:08;;;;;;;7.47;1.50;;;7.50;99.90;;;;;;6188462;23;20096;-91
2023/03/04 08:24:33;;;;;;;7.10;1.08;;;7.60;99.90;;;;;;6188649;23;20017;-90
2023/03/04 08:26:59;;;;;;;11.60;1.48;;;7.60;99.90;;;;;;6188663;23;20456;-91
2023/03/04 08:29:25;;;;;;;8.65;1.20;;;7.70;99.90;;;;;;6188355;23;20027;-91
2023/03/04 08:31:53;;;;;;;5.90;1.10;;;7.70;99.90;;;;;;6163713;23;20048;-90
2023/03/04 08:34:19;;;;;;;7.93;1.50;;;7.70;99.90;;;;;;6188247;23;20482;-91
2023/03/04 08:36:45;;;;;;;6.68;1.10;;;7.70;99.90;;;;;;6188343;23;20021;-91
2023/03/04 08:39:12;;;;;;;2.47;0.93;;;7.70;99.90;;;;;;6162733;23;20020;-90
2023/03/04 08:41:38;;;;;;;6.63;1.10;;;7.80;99.90;;;;;;6162205;23;20337;-90
2023/03/04 08:44:04;;;;;;;4.38;1.08;;;7.80;99.90;;;;;;6164307;23;20452;-89
2023/03/04 08:46:30;;;;;;;9.73;1.73;;;7.80;99.90;;;;;;6189133;23;20067;-90
2023/03/04 08:48:55;;;;;;;3.83;0.90;;;7.90;99.90;;;;;;6188716;23;20020;-90
2023/03/04 08:51:22;;;;;;;6.28;1.17;;;7.90;99.90;;;;;;6164495;23;20028;-91
2023/03/04 08:53:47;;;;;;;6.07;1.33;;;7.90;99.90;;;;;;6189206;23;20020;-91
2023/03/04 08:56:13;;;;;;;5.70;1.27;;;8.00;99.90;;;;;;6189100;23;20013;-92
2023/03/04 08:58:39;;;;;;;8.07;1.13;;;7.90;99.90;;;;;;6163360;23;20013;-89
2023/03/04 09:01:11;;;;;;;6.78;1.40;;;8.00;99.90;;;;;;6189257;23;20427;-90
2023/03/04 09:03:37;;;;;;;8.13;1.50;;;8.00;99.90;;;;;;6189027;23;20036;-91
2023/03/04 09:06:04;;;;;;;10.52;1.67;;;8.10;99.90;;;;;;6188830;23;20067;-90
2023/03/04 09:08:30;;;;;;;5.45;1.35;;;8.20;99.90;;;;;;6188594;23;20017;-90
2023/03/04 09:10:56;;;;;;;11.90;1.73;;;8.30;99.90;;;;;;6159935;23;20625;-91
2023/03/04 09:13:23;;;;;;;9.13;1.20;;;8.30;99.90;;;;;;6188219;23;20013;-90
2023/03/04 09:15:51;;;;;;;9.63;1.42;;;8.40;99.90;;;;;;6188128;23;20016;-90
2023/03/04 09:18:18;;;;;;;15.75;2.00;;;8.40;99.90;;;;;;6187875;23;20086;-90
2023/03/04 09:20:44;;;;;;;9.18;1.60;;;8.40;99.90;;;;;;6187871;23;20011;-91
2023/03/04 09:23:10;;;;;;;9.80;1.55;;;8.40;99.90;;;;;;6163503;23;20016;-90
2023/03/04 09:25:37;;;;;;;12.68;2.25;;;8.30;99.90;;;;;;6188175;23;20040;-90
2023/03/04 09:28:03;;;;;;;10.20;2.00;;;8.20;99.90;;;;;;6163181;23;20011;-90
2023/03/04 09:30:29;;;;;;;12.73;1.60;;;8.20;99.90;;;;;;6161753;23;20095;-90
2023/03/04 09:32:55;;;;;;;12.05;2.15;;;8.10;99.90;;;;;;6187352;23;20430;-90
2023/03/04 09:35:21;;;;;;;14.40;2.53;;;8.20;99.90;;;;;;6187615;23;20020;-90
2023/03/04 09:37:47;;;;;;;13.05;2.13;;;8.30;99.90;;;;;;6162667;23;20013;-90
2023/03/04 09:40:18;;;;;;;13.93;1.60;;;8.30;99.90;;;;;;6187964;23;20017;-90
2023/03/04 09:42:49;;;;;;;12.05;2.22;;;8.30;99.90;;;;;;6163136;23;20019;-90
2023/03/04 09:45:18;;;;;;;14.75;2.47;;;8.40;99.90;;;;;;6188123;23;20012;-90
2023/03/04 09:47:46;;;;;;;12.18;2.00;;;8.50;99.90;;;;;;6187713;23;20055;-90
2023/03/04 09:50:12;;;;;;;11.13;2.17;;;8.60;99.90;;;;;;6187429;23;20055;-91
2023/03/04 09:52:53;;;;;;;16.38;2.20;;;8.60;99.90;;;;;;6187727;23;20023;-90
2023/03/04 09:55:32;;;;;;;11.43;2.58;;;8.70;99.90;;;;;;6188079;23;20351;-91
2023/03/04 09:58:34;;;;;;;11.65;2.22;;;8.70;99.90;;;;;;6162887;23;20024;-90
2023/03/04 10:01:09;;;;;;;14.43;2.17;;;8.70;99.90;;;;;;6187768;23;20058;-90
2023/03/04 10:03:42;;;;;;;12.85;1.83;;;8.70;99.90;;;;;;6187797;23;20684;-90
2023/03/04 10:06:16;;;;;;;13.23;1.80;;;8.70;99.90;;;;;;6162829;23;20100;-90
2023/03/04 10:09:04;;;;;;;13.82;1.77;;;8.60;99.90;;;;;;6187444;23;20020;-90
2023/03/04 10:11:39;;;;;;;15.30;3.30;;;8.60;99.90;;;;;;6162251;23;20017;-90
2023/03/04 10:14:35;;;;;;;15.32;1.92;;;8.50;99.90;;;;;;6187892;23;20012;-90
2023/03/04 10:17:03;;;;;;;11.93;2.15;;;8.60;99.90;;;;;;6188039;23;20023;-91
2023/03/04 10:19:41;;;;;;;15.05;2.13;;;8.60;99.90;;;;;;6162791;23;20071;-90
2023/03/04 10:22:22;;;;;;;13.10;2.28;;;8.60;99.90;;;;;;6163076;23;20481;-90
2023/03/04 10:24:48;;;;;;;14.27;2.42;;;8.60;99.90;;;;;;6162806;23;20048;-90
2023/03/04 10:27:17;;;;;;;15.38;1.85;;;8.60;99.90;;;;;;6187471;23;20024;-89
2023/03/04 10:29:43;;;;;;;10.48;2.00;;;8.70;99.90;;;;;;6162256;23;20017;-90
2023/03/04 10:32:19;;;;;;;12.02;2.00;;;8.70;99.90;;;;;;6186916;23;20063;-90
2023/03/04 10:34:45;;;;;;;12.05;2.05;;;8.70;99.90;;;;;;6162173;23;20020;-90
2023/03/04 10:37:11;;;;;;;15.73;2.17;;;8.80;99.90;;;;;;6160076;23;20017;-90
2023/03/04 10:39:42;;;;;;;11.00;2.00;;;8.80;99.90;;;;;;6206322;23;20025;-91
2023/03/04 10:42:14;;;;;;;12.05;1.85;;;8.90;99.90;;;;;;6217225;23;20052;-90
2023/03/04 10:44:59;;;;;;;8.45;1.67;;;8.90;99.90;;;;;;6212386;23;20009;-91
2023/03/04 10:47:31;;;;;;;12.25;2.08;;;8.90;99.90;;;;;;6193444;23;20456;-91
2023/03/04 10:50:02;;;;;;;11.37;1.90;;;8.80;99.90;;;;;;6187981;23;20095;-91
2023/03/04 10:52:33;;;;;;;12.90;2.50;;;8.70;99.90;;;;;;6187604;23;20095;-89
2023/03/04 10:55:11;;;;;;;12.27;2.13;;;8.70;99.90;;;;;;6162923;23;20461;-90
2023/03/04 10:57:40;;;;;;;12.98;2.25;;;8.60;99.90;;;;;;6187105;23;20012;-91
2023/03/04 11:00:27;;;;;;;10.45;1.52;;;8.60;99.90;;;;;;6162288;23;20013;-91
2023/03/04 11:03:32;;;;;;;12.10;1.75;;;8.60;99.90;;;;;;6162875;23;20044;-91
2023/03/04 11:06:21;;;;;;;8.65;1.38;;;8.60;99.90;;;;;;6187104;23;20013;-90
2023/03/04 11:08:55;;;;;;;7.72;1.13;;;8.70;99.90;;;;;;6186576;23;20016;-91
2023/03/04 11:11:23;;;;;;;7.03;1.65;;;8.80;99.90;;;;;;6161939;23;20024;-90
2023/03/04 11:13:54;;;;;;;5.80;1.10;;;8.90;99.90;;;;;;6162250;23;20063;-90
2023/03/04 11:16:29;;;;;;;7.45;1.20;;;8.90;99.90;;;;;;6187416;23;20016;-90
2023/03/04 11:19:09;;;;;;;6.22;1.20;;;9.00;99.90;;;;;;6186471;23;20020;-90
2023/03/04 11:21:39;;;;;;;7.90;2.03;;;9.10;99.90;;;;;;6186760;23;20091;-91
2023/03/04 11:24:09;;;;;;;6.93;1.58;;;9.10;99.90;;;;;;6161440;23;20017;-90
2023/03/04 11:27:02;;;;;;;8.35;1.73;;;9.10;99.90;;;;;;6162016;23;20013;-89
2023/03/04 11:29:56;;;;;;;7.85;1.50;;;9.00;99.90;;;;;;6162112;23;20020;-90
2023/03/04 11:32:28;;;;;;;10.65;1.52;;;8.90;99.90;;;;;;6158765;23;20071;-90
2023/03/04 11:35:04;;;;;;;11.27;1.77;;;8.90;99.90;;;;;;6161826;23;20017;-89
2023/03/04 11:38:03;;;;;;;9.65;1.40;;;8.80;99.90;;;;;;6186063;23;20539;-90
2023/03/04 11:40:45;;;;;;;12.60;1.98;;;8.80;99.90;;;;;;6086091;23;20044;-90
2023/03/04 11:43:35;;;;;;;9.38;1.73;;;8.80;99.90;;;;;;6188178;23;20020;-89
2023/03/04 11:46:00;;;;;;;8.02;1.70;;;8.90;99.90;;;;;;6189020;23;20027;-90
2023/03/04 11:49:03;;;;;;;14.13;1.95;;;9.10;99.90;;;;;;6188799;23;20359;-90
2023/03/04 11:51:48;;;;;;;11.10;2.15;;;9.20;99.90;;;;;;6188033;23;20460;-90
2023/03/04 11:54:32;;;;;;;14.18;2.35;;;9.30;99.90;;;;;;6163981;23;20020;-91
2023/03/04 11:57:04;;;;;;;11.90;2.08;;;9.30;99.90;;;;;;6188237;23;20022;-90
2023/03/04 11:59:59;;;;;;;21.60;2.13;;;9.30;99.90;;;;;;6188971;23;20020;-90
2023/03/04 12:03:04;;;;;;;15.02;2.35;;;9.30;99.90;;;;;;6189727;23;20096;-89
2023/03/04 12:05:42;;;;;;;14.18;3.05;;;9.20;99.90;;;;;;6140064;23;20100;-90
2023/03/04 12:08:25;;;;;;;18.70;2.88;;;9.20;99.90;;;;;;6164283;23;20067;-90
2023/03/04 12:10:57;;;;;;;14.63;2.22;;;9.20;99.90;;;;;;6189457;23;20202;-91
2023/03/04 12:13:51;;;;;;;16.33;2.58;;;9.20;99.90;;;;;;6164402;23;20027;-90
2023/03/04 12:16:41;;;;;;;12.77;2.40;;;9.20;99.90;;;;;;6189131;23;20060;-90
2023/03/04 12:19:22;;;;;;;12.48;2.53;;;9.20;99.40;;;;;;6188988;23;20464;-89
2023/03/04 12:22:27;;;;;;;15.60;2.67;;;9.30;99.90;;;;;;6164395;23;20021;-90
2023/03/04 12:25:23;;;;;;;13.57;2.20;;;9.30;98.60;;;;;;6189226;23;20021;-90
2023/03/04 12:28:01;;;;;;;11.48;2.03;;;9.40;97.60;;;;;;6188854;23;20530;-90
2023/03/04 12:31:05;;;;;;;16.10;3.00;;;9.40;96.40;;;;;;6164395;23;20021;-90
2023/03/04 12:33:55;;;;;;;14.68;2.60;;;9.40;96.00;;;;;;6119293;23;20080;-90
2023/03/04 12:36:51;;;;;;;14.65;2.20;;;9.50;95.30;;;;;;6163827;23;20024;-91
2023/03/04 12:39:38;;;;;;;13.10;2.28;;;9.50;93.80;;;;;;6163931;23;20537;-90
2023/03/04 12:42:17;;;;;;;11.25;1.98;;;9.50;94.70;;;;;;6189035;23;20013;-90
2023/03/04 12:44:57;;;;;;;11.38;1.95;;;9.50;94.30;;;;;;6188886;23;20016;-90
2023/03/04 12:47:43;;;;;;;13.57;2.17;;;9.70;95.60;;;;;;6187532;23;20423;-90
2023/03/04 12:50:28;;;;;;;9.82;2.13;;;10.00;96.30;;;;;;6160247;23;20360;-92
2023/03/04 12:53:02;;;;;;;11.05;1.95;;;10.40;94.10;;;;;;6161726;23;20475;-91
2023/03/04 12:55:37;;;;;;;10.88;2.22;;;10.70;92.20;;;;;;6187416;23;20464;-91
2023/03/04 12:58:15;;;;;;;10.32;1.88;;;10.90;89.60;;;;;;6188979;23;20360;-90
2023/03/04 13:00:47;;;;;;;11.75;1.75;;;10.90;89.20;;;;;;6188476;23;20020;-91
2023/03/04 13:03:24;;;;;;;18.15;2.83;;;10.90;85.70;;;;;;6163993;23;20043;-91